createdAt,value
2018-12-08T00:02:21.313Z,7.20
2018-12-08T00:04:48.904Z,7.20
2018-12-08T00:07:17.274Z,7.30
2018-12-08T00:09:44.858Z,7.30
2018-12-08T00:12:12.897Z,7.30
2018-12-08T00:14:40.471Z,7.30
2018-12-08T00:17:08.825Z,7.30
2018-12-08T00:19:36.430Z,7.30
2018-12-08T00:22:04.018Z,7.30
2018-12-08T00:24:31.694Z,7.20
2018-12-08T00:26:59.286Z,7.20
2018-12-08T00:29:26.865Z,7.20
2018-12-08T00:31:55.236Z,7.20
2018-12-08T00:34:23.580Z,7.20
2018-12-08T00:36:51.923Z,7.20
2018-12-08T00:39:19.496Z,7.20
2018-12-08T00:41:47.079Z,7.20
2018-12-08T00:44:14.680Z,7.20
2018-12-08T00:46:42.260Z,7.20
2018-12-08T00:49:10.699Z,7.20
2018-12-08T00:51:38.284Z,7.20
2018-12-08T00:54:08.365Z,7.20
2018-12-08T00:56:35.997Z,7.20
2018-12-08T00:59:04.307Z,7.20
2018-12-08T01:01:31.961Z,7.20
2018-12-08T01:03:59.549Z,7.30
2018-12-08T01:06:27.179Z,7.20
2018-12-08T01:08:55.060Z,7.30
2018-12-08T01:11:22.644Z,7.40
2018-12-08T01:13:50.622Z,7.40
2018-12-08T01:16:18.198Z,7.40
2018-12-08T01:18:45.797Z,7.50
2018-12-08T01:21:13.402Z,7.50
2018-12-08T01:23:40.974Z,7.40
2018-12-08T01:26:08.586Z,7.30
2018-12-08T01:28:36.165Z,7.40
2018-12-08T01:31:03.775Z,7.40
2018-12-08T01:33:31.382Z,7.30
2018-12-08T01:35:59.113Z,7.30
2018-12-08T01:38:27.498Z,7.20
2018-12-08T01:40:55.082Z,7.20
2018-12-08T01:43:22.665Z,7.20
2018-12-08T01:45:50.276Z,7.10
2018-12-08T01:48:17.849Z,7.10
2018-12-08T01:50:45.793Z,7.10
2018-12-08T01:53:13.369Z,7.10
2018-12-08T01:55:41.738Z,7.00
2018-12-08T01:58:09.336Z,7.00
2018-12-08T02:00:36.926Z,7.00
2018-12-08T02:03:04.539Z,7.00
2018-12-08T02:05:32.874Z,6.90
2018-12-08T02:08:00.448Z,6.90
2018-12-08T02:10:28.056Z,6.90
2018-12-08T02:12:55.627Z,6.80
2018-12-08T02:15:23.254Z,7.00
2018-12-08T02:17:50.861Z,7.00
2018-12-08T02:20:18.441Z,7.10
2018-12-08T02:22:46.064Z,7.30
2018-12-08T02:25:13.638Z,7.20
2018-12-08T02:27:41.300Z,7.20
2018-12-08T02:30:08.891Z,7.10
2018-12-08T02:32:36.489Z,7.10
2018-12-08T02:35:04.094Z,7.00
2018-12-08T02:37:31.667Z,7.00
2018-12-08T02:39:59.299Z,7.00
2018-12-08T02:42:26.879Z,6.90
2018-12-08T02:44:54.468Z,6.90
2018-12-08T02:47:22.080Z,6.90
2018-12-08T02:49:49.656Z,6.90
2018-12-08T02:52:17.262Z,6.90
2018-12-08T02:54:44.839Z,6.90
2018-12-08T02:57:13.508Z,7.00
2018-12-08T02:59:41.086Z,7.00
2018-12-08T03:02:09.434Z,7.00
2018-12-08T03:04:37.041Z,7.00
2018-12-08T03:07:05.384Z,6.90
2018-12-08T03:09:32.991Z,6.90
2018-12-08T03:12:00.569Z,6.90
2018-12-08T03:14:28.155Z,7.00
2018-12-08T03:16:55.773Z,7.00
2018-12-08T03:19:25.331Z,7.00
2018-12-08T03:21:51.740Z,6.90
2018-12-08T03:24:19.334Z,6.90
2018-12-08T03:26:46.912Z,6.90
2018-12-08T03:29:14.518Z,6.90
2018-12-08T03:31:42.102Z,6.90
2018-12-08T03:34:10.520Z,6.90
2018-12-08T03:36:38.458Z,6.90
2018-12-08T03:39:06.038Z,6.90
2018-12-08T03:41:33.657Z,6.90
2018-12-08T03:44:01.228Z,6.80
2018-12-08T03:46:28.857Z,6.90
2018-12-08T03:48:56.777Z,6.80
2018-12-08T03:51:24.367Z,6.80
2018-12-08T03:53:52.024Z,6.80
2018-12-08T03:56:19.596Z,6.80
2018-12-08T03:58:47.982Z,7.00
2018-12-08T04:01:16.337Z,7.00
2018-12-08T04:03:44.285Z,7.00
2018-12-08T04:06:11.904Z,7.00
2018-12-08T04:08:40.249Z,7.20
2018-12-08T04:11:07.840Z,7.10
2018-12-08T04:13:35.454Z,7.10
2018-12-08T04:16:03.038Z,7.10
2018-12-08T04:18:30.623Z,7.10
2018-12-08T04:20:58.221Z,7.00
2018-12-08T04:23:25.802Z,7.00
2018-12-08T04:25:53.383Z,7.00
2018-12-08T04:28:20.993Z,7.00
2018-12-08T04:30:48.588Z,7.00
2018-12-08T04:33:16.176Z,7.00
2018-12-08T04:35:44.172Z,6.90
2018-12-08T04:38:11.731Z,6.90
2018-12-08T04:40:40.086Z,6.90
2018-12-08T04:43:08.157Z,7.00
2018-12-08T04:45:35.748Z,7.10
2018-12-08T04:48:03.332Z,7.10
2018-12-08T04:50:31.420Z,7.00
2018-12-08T04:52:58.996Z,7.00
2018-12-08T04:55:26.585Z,6.90
2018-12-08T04:57:54.930Z,6.90
2018-12-08T05:00:22.519Z,6.90
2018-12-08T05:02:50.109Z,6.80
2018-12-08T05:05:18.259Z,6.80
2018-12-08T05:07:45.835Z,6.90
2018-12-08T05:10:14.194Z,6.90
2018-12-08T05:12:41.898Z,6.90
2018-12-08T05:15:09.372Z,6.90
2018-12-08T05:17:37.002Z,7.00
2018-12-08T05:20:05.352Z,7.00
2018-12-08T05:22:32.936Z,7.00
2018-12-08T05:25:01.310Z,6.90
2018-12-08T05:27:28.899Z,6.90
2018-12-08T05:29:57.245Z,6.90
2018-12-08T05:32:24.830Z,6.90
2018-12-08T05:34:53.172Z,6.90
2018-12-08T05:37:20.774Z,6.80
2018-12-08T05:39:48.689Z,6.90
2018-12-08T05:42:16.333Z,7.00
2018-12-08T05:44:43.929Z,7.00
2018-12-08T05:47:11.513Z,7.00
2018-12-08T05:49:39.118Z,7.00
2018-12-08T05:52:06.701Z,7.00
2018-12-08T05:54:34.808Z,7.00
2018-12-08T05:57:02.411Z,7.00
2018-12-08T05:59:29.989Z,6.90
2018-12-08T06:01:57.744Z,6.90
2018-12-08T06:04:25.324Z,6.90
2018-12-08T06:06:53.289Z,6.90
2018-12-08T06:09:20.872Z,6.90
2018-12-08T06:11:48.825Z,6.90
2018-12-08T06:14:16.427Z,6.90
2018-12-08T06:16:44.007Z,6.90
2018-12-08T06:19:12.431Z,6.90
2018-12-08T06:21:40.008Z,6.90
2018-12-08T06:24:07.589Z,6.90
2018-12-08T06:26:35.197Z,7.00
2018-12-08T06:29:02.774Z,7.00
2018-12-08T06:31:30.381Z,7.00
2018-12-08T06:33:58.725Z,6.90
2018-12-08T06:36:26.354Z,6.90
2018-12-08T06:38:53.940Z,6.90
2018-12-08T06:41:21.562Z,6.90
2018-12-08T06:43:49.174Z,6.90
2018-12-08T06:46:16.749Z,6.90
2018-12-08T06:48:44.328Z,6.90
2018-12-08T06:51:12.736Z,6.90
2018-12-08T06:53:40.336Z,6.90
2018-12-08T06:56:07.914Z,6.90
2018-12-08T06:58:35.575Z,6.90
2018-12-08T07:01:03.180Z,6.90
2018-12-08T07:03:30.764Z,6.90
2018-12-08T07:05:58.463Z,6.90
2018-12-08T07:08:26.038Z,6.90
2018-12-08T07:10:53.614Z,6.90
2018-12-08T07:13:22.017Z,6.90
2018-12-08T07:15:50.371Z,6.90
2018-12-08T07:18:17.962Z,6.90
2018-12-08T07:20:45.984Z,6.90
2018-12-08T07:23:13.565Z,7.00
2018-12-08T07:25:41.915Z,6.90
2018-12-08T07:28:09.522Z,6.90
2018-12-08T07:30:37.871Z,7.10
2018-12-08T07:33:05.918Z,7.10
2018-12-08T07:35:33.502Z,7.20
2018-12-08T07:38:01.080Z,7.30
2018-12-08T07:40:29.458Z,7.40
2018-12-08T07:42:57.040Z,7.30
2018-12-08T07:45:25.897Z,7.30
2018-12-08T07:47:53.494Z,7.30
2018-12-08T07:50:21.838Z,7.30
2018-12-08T07:52:50.642Z,7.30
2018-12-08T07:55:18.216Z,7.30
2018-12-08T07:57:46.559Z,7.10
2018-12-08T08:00:14.770Z,7.20
2018-12-08T08:02:43.121Z,7.10
2018-12-08T08:05:10.719Z,7.10
2018-12-08T08:07:39.109Z,7.20
2018-12-08T08:10:06.697Z,7.20
2018-12-08T08:12:34.272Z,7.20
2018-12-08T08:15:01.902Z,7.20
2018-12-08T08:17:29.490Z,7.20
2018-12-08T08:19:57.098Z,7.20
2018-12-08T08:22:25.499Z,7.20
2018-12-08T08:24:53.082Z,7.20
2018-12-08T08:27:20.661Z,7.30
2018-12-08T08:29:48.292Z,7.40
2018-12-08T08:32:15.878Z,7.40
2018-12-08T08:34:43.466Z,7.40
2018-12-08T08:37:11.850Z,7.40
2018-12-08T08:39:39.427Z,7.40
2018-12-08T08:42:07.771Z,7.60
2018-12-08T08:44:35.766Z,7.60
2018-12-08T08:47:03.351Z,7.60
2018-12-08T08:49:31.709Z,7.80
2018-12-08T08:51:59.339Z,7.80
2018-12-08T08:54:26.917Z,7.80
2018-12-08T08:56:54.496Z,7.80
2018-12-08T08:59:22.124Z,7.70
2018-12-08T09:01:49.705Z,7.70
2018-12-08T09:04:17.301Z,7.70
2018-12-08T09:06:45.737Z,7.70
2018-12-08T09:09:13.309Z,7.70
2018-12-08T09:11:40.887Z,7.70
2018-12-08T09:14:13.195Z,7.70
2018-12-08T09:16:36.115Z,7.70
2018-12-08T09:19:04.463Z,7.70
2018-12-08T09:21:32.088Z,7.70
2018-12-08T09:23:59.684Z,7.70
2018-12-08T09:26:27.831Z,7.80
2018-12-08T09:28:55.469Z,8.00
2018-12-08T09:31:23.811Z,8.00
2018-12-08T09:33:52.967Z,8.00
2018-12-08T09:36:19.822Z,8.10
2018-12-08T09:38:47.405Z,8.10
2018-12-08T09:41:14.981Z,8.10
2018-12-08T09:43:42.640Z,8.10
2018-12-08T09:46:10.259Z,8.10
2018-12-08T09:48:37.831Z,8.10
2018-12-08T09:51:05.457Z,8.10
2018-12-08T09:53:33.027Z,8.10
2018-12-08T09:56:00.601Z,8.10
2018-12-08T09:58:28.231Z,8.00
2018-12-08T10:00:55.805Z,8.00
2018-12-08T10:03:24.151Z,7.90
2018-12-08T10:05:51.775Z,7.90
2018-12-08T10:08:19.347Z,7.90
2018-12-08T10:10:46.924Z,8.00
2018-12-08T10:13:14.556Z,8.00
2018-12-08T10:15:42.131Z,8.00
2018-12-08T10:18:09.725Z,8.00
2018-12-08T10:20:37.811Z,8.00
2018-12-08T10:23:05.390Z,8.00
2018-12-08T10:25:33.747Z,8.30
2018-12-08T10:28:01.376Z,8.30
2018-12-08T10:30:28.964Z,8.30
2018-12-08T10:32:56.536Z,8.30
2018-12-08T10:35:24.810Z,8.30
2018-12-08T10:37:52.388Z,8.30
2018-12-08T10:40:20.319Z,8.30
2018-12-08T10:42:48.070Z,8.30
2018-12-08T10:45:15.995Z,8.30
2018-12-08T10:47:43.907Z,8.30
2018-12-08T10:50:12.491Z,8.40
2018-12-08T10:52:40.126Z,8.30
2018-12-08T10:55:08.560Z,8.40
2018-12-08T10:57:42.616Z,8.30
2018-12-08T11:00:11.264Z,8.30
2018-12-08T11:02:38.858Z,8.30
2018-12-08T11:05:07.741Z,8.40
2018-12-08T11:07:35.320Z,8.40
2018-12-08T11:10:02.906Z,8.40
2018-12-08T11:12:30.536Z,8.40
2018-12-08T11:15:00.851Z,8.50
2018-12-08T11:17:26.479Z,8.50
2018-12-08T11:19:54.254Z,8.50
2018-12-08T11:22:21.855Z,8.50
2018-12-08T11:24:49.478Z,8.50
2018-12-08T11:27:17.106Z,8.50
2018-12-08T11:29:44.692Z,8.60
2018-12-08T11:32:13.041Z,8.60
2018-12-08T11:34:41.120Z,8.60
2018-12-08T11:37:08.696Z,8.60
2018-12-08T11:39:36.284Z,8.60
2018-12-08T11:42:03.898Z,8.60
2018-12-08T11:44:31.480Z,8.60
2018-12-08T11:46:59.061Z,8.60
2018-12-08T11:49:26.976Z,8.60
2018-12-08T11:51:54.559Z,8.60
2018-12-08T11:54:22.142Z,8.60
2018-12-08T11:56:50.578Z,8.70
2018-12-08T11:59:18.120Z,8.70
2018-12-08T12:01:45.851Z,8.70
2018-12-08T12:04:14.238Z,8.70
2018-12-08T12:06:42.575Z,8.70
2018-12-08T12:09:10.740Z,8.70
2018-12-08T12:11:38.377Z,8.70
2018-12-08T12:14:05.947Z,8.60
2018-12-08T12:16:34.244Z,8.60
2018-12-08T12:19:02.318Z,8.60
2018-12-08T12:21:29.905Z,8.60
2018-12-08T12:23:57.486Z,8.60
2018-12-08T12:26:25.895Z,8.80
2018-12-08T12:28:53.472Z,8.80
2018-12-08T12:31:21.051Z,8.90
2018-12-08T12:33:48.728Z,8.90
2018-12-08T12:36:16.282Z,8.90
2018-12-08T12:38:43.876Z,8.80
2018-12-08T12:41:12.286Z,8.80
2018-12-08T12:43:39.868Z,8.80
2018-12-08T12:46:07.453Z,8.80
2018-12-08T12:48:35.103Z,8.70
2018-12-08T12:51:02.687Z,8.70
2018-12-08T12:53:30.285Z,8.70
2018-12-08T12:55:57.910Z,8.70
2018-12-08T12:58:25.485Z,8.80
2018-12-08T13:00:53.840Z,8.90
2018-12-08T13:03:21.458Z,8.80
2018-12-08T13:05:49.091Z,8.90
2018-12-08T13:08:17.735Z,8.90
2018-12-08T13:10:45.315Z,8.80
2018-12-08T13:13:13.014Z,8.80
2018-12-08T13:15:40.882Z,8.80
2018-12-08T13:18:15.037Z,8.70
2018-12-08T13:20:42.715Z,8.70
2018-12-08T13:23:10.652Z,8.70
2018-12-08T13:25:38.389Z,8.70
2018-12-08T13:28:06.547Z,8.70
2018-12-08T13:30:34.217Z,8.70
2018-12-08T13:33:01.723Z,8.70
2018-12-08T13:35:55.903Z,8.70
2018-12-08T13:38:23.522Z,8.70
2018-12-08T13:40:51.412Z,8.80
2018-12-08T13:43:19.766Z,8.80
2018-12-08T13:45:47.349Z,8.80
2018-12-08T13:48:14.986Z,8.90
2018-12-08T13:50:42.574Z,8.90
2018-12-08T13:53:11.134Z,8.90
2018-12-08T13:55:38.753Z,8.90
2018-12-08T13:58:06.335Z,9.00
2018-12-08T14:00:33.992Z,9.10
2018-12-08T14:03:01.546Z,9.10
2018-12-08T14:05:29.177Z,9.10
2018-12-08T14:07:56.772Z,9.10
2018-12-08T14:10:24.361Z,9.00
2018-12-08T14:12:51.965Z,9.00
2018-12-08T14:15:19.571Z,9.00
2018-12-08T14:17:48.602Z,9.10
2018-12-08T14:20:22.128Z,9.10
2018-12-08T14:22:49.707Z,9.10
2018-12-08T14:25:17.322Z,9.10
2018-12-08T14:28:03.040Z,9.10
2018-12-08T14:30:31.459Z,9.00
2018-12-08T14:32:59.054Z,9.10
2018-12-08T14:35:26.704Z,9.10
2018-12-08T14:37:54.732Z,9.00
2018-12-08T14:40:22.329Z,9.10
2018-12-08T14:42:50.001Z,9.10
2018-12-08T14:45:17.577Z,9.10
2018-12-08T14:47:45.159Z,9.10
2018-12-08T14:50:12.776Z,9.00
2018-12-08T14:52:40.351Z,9.00
2018-12-08T14:55:07.930Z,9.00
2018-12-08T14:57:36.322Z,9.00
2018-12-08T15:00:04.677Z,9.00
2018-12-08T15:02:32.246Z,9.00
2018-12-08T15:04:59.889Z,8.90
2018-12-08T15:07:27.463Z,8.90
2018-12-08T15:09:55.049Z,8.90
2018-12-08T15:12:23.217Z,8.90
2018-12-08T15:14:50.797Z,8.90
2018-12-08T15:17:18.431Z,9.00
2018-12-08T15:19:46.053Z,8.90
2018-12-08T15:22:13.645Z,9.00
2018-12-08T15:24:41.250Z,9.00
2018-12-08T15:27:08.876Z,9.00
2018-12-08T15:29:36.460Z,8.90
2018-12-08T15:32:05.296Z,9.00
2018-12-08T15:34:33.368Z,8.90
2018-12-08T15:37:00.991Z,8.90
2018-12-08T15:39:28.633Z,8.90
2018-12-08T15:41:56.216Z,8.90
2018-12-08T15:44:24.555Z,8.90
2018-12-08T15:46:52.223Z,8.90
2018-12-08T15:49:19.824Z,8.90
2018-12-08T15:51:47.421Z,8.90
2018-12-08T15:54:15.046Z,8.90
2018-12-08T15:56:42.635Z,8.90
2018-12-08T15:59:10.234Z,8.90
2018-12-08T16:01:37.886Z,8.80
2018-12-08T16:04:05.480Z,8.80
2018-12-08T16:06:33.890Z,8.90
2018-12-08T16:09:01.484Z,9.00
2018-12-08T16:11:29.311Z,8.90
2018-12-08T16:13:56.966Z,8.90
2018-12-08T16:16:25.328Z,8.90
2018-12-08T16:18:53.676Z,8.90
2018-12-08T16:21:21.314Z,8.90
2018-12-08T16:23:48.914Z,8.90
2018-12-08T16:26:16.504Z,9.00
2018-12-08T16:28:44.152Z,9.10
2018-12-08T16:31:11.730Z,9.30
2018-12-08T16:33:40.076Z,9.20
2018-12-08T16:36:07.717Z,9.20
2018-12-08T16:38:35.318Z,9.20
2018-12-08T16:41:02.892Z,9.10
2018-12-08T16:43:31.325Z,9.00
2018-12-08T16:45:58.874Z,9.00
2018-12-08T16:48:26.453Z,8.90
2018-12-08T16:50:54.085Z,8.90
2018-12-08T16:53:21.685Z,8.90
2018-12-08T16:55:49.261Z,8.90
2018-12-08T16:58:17.359Z,8.90
2018-12-08T17:00:45.705Z,8.90
2018-12-08T17:03:13.360Z,8.90
2018-12-08T17:05:40.968Z,8.90
2018-12-08T17:08:09.365Z,8.90
2018-12-08T17:10:36.982Z,8.90
2018-12-08T17:13:04.560Z,8.90
2018-12-08T17:15:32.903Z,9.00
2018-12-08T17:18:00.537Z,9.00
2018-12-08T17:20:28.124Z,9.00
2018-12-08T17:22:55.702Z,9.10
2018-12-08T17:25:23.331Z,9.10
2018-12-08T17:27:50.920Z,9.10
2018-12-08T17:30:18.504Z,9.00
2018-12-08T17:32:46.908Z,9.00
2018-12-08T17:35:14.491Z,9.00
2018-12-08T17:37:42.076Z,9.00
2018-12-08T17:40:09.743Z,9.00
2018-12-08T17:42:37.299Z,8.90
2018-12-08T17:45:04.885Z,9.00
2018-12-08T17:47:33.216Z,9.00
2018-12-08T17:50:00.810Z,9.00
2018-12-08T17:52:28.384Z,9.10
2018-12-08T17:54:57.449Z,9.10
2018-12-08T17:57:24.996Z,9.10
2018-12-08T17:59:52.580Z,9.10
2018-12-08T18:02:20.208Z,9.10
2018-12-08T18:04:47.882Z,9.10
2018-12-08T18:07:15.375Z,9.10
2018-12-08T18:09:42.981Z,9.10
2018-12-08T18:12:11.324Z,9.10
2018-12-08T18:14:38.957Z,9.10
2018-12-08T18:17:06.532Z,9.10
2018-12-08T18:19:34.118Z,9.20
2018-12-08T18:22:01.758Z,9.30
2018-12-08T18:24:29.351Z,9.30
2018-12-08T18:26:56.945Z,9.40
2018-12-08T18:29:24.572Z,9.40
2018-12-08T18:31:52.160Z,9.40
2018-12-08T18:34:20.506Z,9.30
2018-12-08T18:36:48.138Z,9.30
2018-12-08T18:39:15.718Z,9.30
2018-12-08T18:41:43.299Z,9.40
2018-12-08T18:44:11.341Z,9.40
2018-12-08T18:46:38.933Z,9.50
2018-12-08T18:49:06.515Z,9.70
2018-12-08T18:51:34.905Z,9.60
2018-12-08T18:54:02.486Z,9.60
2018-12-08T18:56:30.065Z,9.60
2018-12-08T18:58:57.696Z,9.60
2018-12-08T19:01:25.281Z,9.50
2018-12-08T19:03:52.858Z,9.50
2018-12-08T19:06:20.493Z,9.40
2018-12-08T19:08:48.066Z,9.50
2018-12-08T19:11:15.652Z,9.40
2018-12-08T19:13:43.707Z,9.40
2018-12-08T19:16:11.283Z,9.40
2018-12-08T19:18:39.374Z,9.40
2018-12-08T19:21:07.311Z,9.40
2018-12-08T19:23:34.888Z,9.40
2018-12-08T19:26:03.405Z,9.40
2018-12-08T19:28:31.762Z,9.50
2018-12-08T19:30:59.365Z,9.50
2018-12-08T19:33:26.988Z,9.50
2018-12-08T19:35:54.561Z,9.60
2018-12-08T19:38:22.150Z,9.60
2018-12-08T19:40:50.529Z,9.70
2018-12-08T19:43:18.098Z,9.70
2018-12-08T19:45:45.681Z,9.70
2018-12-08T19:48:13.283Z,9.80
2018-12-08T19:50:40.868Z,9.80
2018-12-08T19:53:09.625Z,9.80
2018-12-08T19:55:37.206Z,9.80
2018-12-08T19:58:05.571Z,9.70
2018-12-08T20:00:33.219Z,9.70
2018-12-08T20:03:00.823Z,9.80
2018-12-08T20:05:29.169Z,9.70
2018-12-08T20:07:56.798Z,9.70
2018-12-08T20:10:24.384Z,9.70
2018-12-08T20:12:51.963Z,9.80
2018-12-08T20:15:19.620Z,9.90
2018-12-08T20:17:47.250Z,9.80
2018-12-08T20:20:14.825Z,9.90
2018-12-08T20:22:42.473Z,10.10
2018-12-08T20:25:10.166Z,10.10
2018-12-08T20:27:37.749Z,10.10
2018-12-08T20:30:06.321Z,10.00
2018-12-08T20:32:33.918Z,10.10
2018-12-08T20:35:01.534Z,10.20
2018-12-08T20:37:29.167Z,10.20
2018-12-08T20:39:56.781Z,10.10
2018-12-08T20:42:24.379Z,10.20
2018-12-08T20:44:52.038Z,10.30
2018-12-08T20:47:19.618Z,10.20
2018-12-08T20:49:47.535Z,10.20
2018-12-08T20:52:15.116Z,10.20
2018-12-08T20:54:43.465Z,10.20
2018-12-08T20:57:11.656Z,10.20
2018-12-08T20:59:40.024Z,10.30
2018-12-08T21:02:07.609Z,10.30
2018-12-08T21:04:36.018Z,10.50
2018-12-08T21:07:03.664Z,10.50
2018-12-08T21:09:31.254Z,10.50
2018-12-08T21:11:58.923Z,10.40
2018-12-08T21:14:26.512Z,10.40
2018-12-08T21:16:54.169Z,10.40
2018-12-08T21:19:21.741Z,10.40
2018-12-08T21:21:50.746Z,10.40
2018-12-08T21:24:18.378Z,10.50
2018-12-08T21:26:45.961Z,10.50
2018-12-08T21:29:14.821Z,10.50
2018-12-08T21:31:42.028Z,10.50
2018-12-08T21:34:10.374Z,10.50
2018-12-08T21:36:38.019Z,10.50
2018-12-08T21:39:05.648Z,10.40
2018-12-08T21:41:33.237Z,10.30
2018-12-08T21:44:00.822Z,10.20
2018-12-08T21:46:29.011Z,10.10
2018-12-08T21:48:56.620Z,10.00
2018-12-08T21:51:24.210Z,9.90
2018-12-08T21:53:51.837Z,9.80
2018-12-08T21:56:19.426Z,9.90
2018-12-08T21:58:47.082Z,9.90
2018-12-08T22:01:14.670Z,9.80
2018-12-08T22:03:42.281Z,9.90
2018-12-08T22:06:10.569Z,9.90
2018-12-08T22:08:38.796Z,10.00
2018-12-08T22:11:06.402Z,10.00
2018-12-08T22:13:34.049Z,10.10
2018-12-08T22:16:02.403Z,10.30
2018-12-08T22:18:29.979Z,10.30
2018-12-08T22:20:58.386Z,10.50
2018-12-08T22:23:26.020Z,10.50
2018-12-08T22:25:54.377Z,10.50
2018-12-08T22:28:21.990Z,10.50
2018-12-08T22:30:49.575Z,10.40
2018-12-08T22:33:17.998Z,10.40
2018-12-08T22:35:45.585Z,10.40
2018-12-08T22:38:13.167Z,10.30
2018-12-08T22:40:40.797Z,10.20
2018-12-08T22:43:09.149Z,10.10
2018-12-08T22:45:36.751Z,10.10
2018-12-08T22:48:04.457Z,10.00
2018-12-08T22:50:32.044Z,10.00
2018-12-08T22:52:59.631Z,9.90
2018-12-08T22:55:28.034Z,9.90
2018-12-08T22:57:55.620Z,9.90
2018-12-08T23:00:31.921Z,9.80
2018-12-08T23:02:59.855Z,9.80
2018-12-08T23:05:27.526Z,9.70
2018-12-08T23:07:55.178Z,9.70
2018-12-08T23:10:22.765Z,9.60
2018-12-08T23:12:50.365Z,9.80
2018-12-08T23:15:18.729Z,9.90
2018-12-08T23:17:47.081Z,9.90
2018-12-08T23:20:14.716Z,9.90
2018-12-08T23:22:42.297Z,9.90
2018-12-08T23:25:09.885Z,9.90
2018-12-08T23:27:37.510Z,10.00
2018-12-08T23:30:05.085Z,9.90
2018-12-08T23:32:32.747Z,9.90
2018-12-08T23:35:00.325Z,9.90
2018-12-08T23:37:27.912Z,9.90
2018-12-08T23:39:56.286Z,10.00
2018-12-08T23:42:24.655Z,10.00
2018-12-08T23:44:52.306Z,10.00
2018-12-08T23:47:19.903Z,10.00
2018-12-08T23:49:48.473Z,9.80
2018-12-08T23:52:16.097Z,9.80
2018-12-08T23:54:43.677Z,9.80
2018-12-08T23:57:11.308Z,9.80
2018-12-08T23:59:38.899Z,9.80
